Airfield :
LOGIN :

Register | Disclaimer

   EN    FR    IT 

 










Legend :    VFR   Marginal VFR   IFR   Intensive IFR   Very Intensive IFR
Visi :
Ceiling :
>= 8 km
>= 3000ft
5 to 8 km
1000 to 3000 ft
1500m to 5 km
500 to 1000 ft
800 to 1500m
200 to 500 ft
< 800m
< 200 ft
Symbols :   Thunderstorms  Fog  Heavy snow  Heavy precipitations  Wind > 20 kt
SIGMETs :     Misc.  Thunderstorms  Icing  Turbulence  Mountain Waves  Volcanic Ashes







- Airport Elevation : 0 ft


ETEB - Ansbach Army Heliport

CURRENT METAR :
  • 161707Z AUTO 19006KT 9999 SCT060 SCT110 19/13 A2992 RMK AO2 LTG DSNT NW RAE07 TSE1658 SLP133 $

EXPIRED METARs :
  • 161656Z AUTO 18008KT 9999 -RA VCTS FEW002 SCT035 BKN060 19/13 A2992 RMK AO2 DZB07E11DZB21E25RAB25 TSB40E55 SLP133 P0013 T01870131 $
  • 161640Z 17008KT 5000 -TSRA FEW002 BKN035 OVC055 20/13 A2992
  • 161630Z AUTO 25009KT 9999 -RA FEW002 OVC055 21/14 A2993 RMK AO2 DZB07E11DZB21E25RAB25 SLP135 $
  • 161621Z AUTO 27009KT 9999 -DZ OVC055 22/13 A2992 RMK AO2 DZB07E11DZB21 SLP129 $
  • 161611Z AUTO 27007KT 9999 BKN060 23/12 A2992 RMK AO2 DZB07E11 SLP129 $
  • 161607Z AUTO 25006KT 9999 -DZ BKN060 23/11 A2992 RMK AO2 DZB07 SLP129 $
  • 161556Z AUTO 15003KT 9999 BKN055 24/11 A2991 RMK AO2 DZB33E42 SLP124 P0000 T02350109 $
  • 161542Z AUTO 00000KT 9999 OVC055 24/11 A2992 RMK AO2 DZB33E42 SLP129 $
  • 161533Z AUTO 12005KT 9999 -DZ BKN055 24/11 A2992 RMK AO2 DZB33 SLP129 $
  • 161456Z AUTO 32005KT 9999 FEW065 24/11 A2992 RMK AO2 DZB1356E06DZB17E27 SLP127 P0000 60000 T02380108 57014 $

TAF AMD TAF ETEB
Valid from the 16 at 17:00 until the 17 at 19:00 UTC


161709Z 1617/1719 05009KT 9000 -SHRA BKN070 QNH2992INS
BECMG 1618/1619 29009KT 9999 NSW SCT060 QNH2995INS
BECMG 1708/1709 29009KT 9000 -SHRA BKN050 QNH2996INS
BECMG 1715/1716 30010G15KT 9999 NSW BKN090 QNH2993INS TX25/1714Z TN13/1704Z
No reported NOTAMs for that airfield.



MET'MAP, your aeronautical weather chart ! - Copyright ORBIFLY December 2007 - Disclaimer

ORBIFLY MET'MAP TEAM :

Programming & Development : Alexandra Zaïnal
Concept & Development : Baudouin d'Aumeries
Co-Development & Prog : Marc-Olivier Méhu
Technical & hardware support : Manuel Goepfert

Contact : metmap@orbifly.com




SOURCES & CREDITS :

   NOAA